TPC1496 EGUS-EGLA

Flight info

Callsign TPC1496
Flight time N/A
Altitude 2500
Route EGUS EGWL EGLA
Aircraft AP32/L-DOV/C

Departure

Time N/A
Airport EGUS

Arrival

Time 2026-04-23 01:13
Airport Bodmin Airfield (EGLA)
Time Latitude Longitude Altitude Speed Heading
2026-04-23 00:14 51.12478 -2.59934 180 ft 0 kts 159°
2026-04-23 00:16 51.12474 -2.59931 180 ft 3 kts 157°
2026-04-23 00:17 51.12459 -2.59935 179 ft 3 kts 237°
2026-04-23 00:17 51.12453 -2.60003 176 ft 8 kts 243°
2026-04-23 00:17 51.12445 -2.59986 176 ft 3 kts 84°
2026-04-23 00:17 51.12445 -2.59981 177 ft 0 kts 69°
2026-04-23 00:18 51.12509 -2.59777 212 ft 39 kts 71°
2026-04-23 00:18 51.12647 -2.59325 320 ft 48 kts 68°
2026-04-23 00:18 51.12813 -2.58753 414 ft 69 kts 69°
2026-04-23 00:19 51.13003 -2.57980 577 ft 81 kts 69°
2026-04-23 00:19 51.13508 -2.57445 631 ft 100 kts
2026-04-23 00:19 51.14155 -2.57892 742 ft 104 kts 335°
2026-04-23 00:19 51.14804 -2.58506 798 ft 113 kts 335°
2026-04-23 00:20 51.15340 -2.59498 790 ft 130 kts 282°
2026-04-23 00:20 51.15199 -2.60859 902 ft 123 kts 249°
2026-04-23 00:20 51.14946 -2.62162 984 ft 123 kts 251°
2026-04-23 00:20 51.14698 -2.63485 1034 ft 126 kts 251°
2026-04-23 00:21 51.14449 -2.64820 1073 ft 126 kts 250°
2026-04-23 00:21 51.14268 -2.66194 1129 ft 129 kts 260°
2026-04-23 00:21 51.14222 -2.67608 1185 ft 131 kts 269°
2026-04-23 00:21 51.14250 -2.69095 1178 ft 136 kts 272°
2026-04-23 00:22 51.14298 -2.70608 1165 ft 139 kts 268°
2026-04-23 00:22 51.14102 -2.72044 1134 ft 130 kts 235°
2026-04-23 00:22 51.13507 -2.73050 1149 ft 122 kts 210°
2026-04-23 00:22 51.12824 -2.73861 1159 ft 123 kts 208°
2026-04-23 00:23 51.12219 -2.74868 1249 ft 131 kts 232°
2026-04-23 00:23 51.11912 -2.76241 1231 ft 133 kts 257°
2026-04-23 00:23 51.11865 -2.77719 1244 ft 136 kts 265°
2026-04-23 00:23 51.11892 -2.79214 1277 ft 134 kts 272°
2026-04-23 00:24 51.12003 -2.80705 1329 ft 138 kts 277°
2026-04-23 00:24 51.12113 -2.82211 1353 ft 135 kts 275°
2026-04-23 00:24 51.12247 -2.83692 1336 ft 137 kts 275°
2026-04-23 00:24 51.12114 -2.85167 1358 ft 134 kts 236°
2026-04-23 00:25 51.11559 -2.86286 1382 ft 123 kts 208°
2026-04-23 00:25 51.10858 -2.87038 1346 ft 120 kts 200°
2026-04-23 00:25 51.10151 -2.87706 1366 ft 117 kts 200°
2026-04-23 00:25 51.09452 -2.88417 1407 ft 119 kts 205°
2026-04-23 00:26 51.08791 -2.89209 1381 ft 119 kts 207°
2026-04-23 00:26 51.08133 -2.90031 1429 ft 123 kts 212°
2026-04-23 00:26 51.07549 -2.91060 1436 ft 126 kts 224°
2026-04-23 00:26 51.07042 -2.92205 1446 ft 127 kts 228°
2026-04-23 00:27 51.06599 -2.93405 1383 ft 128 kts 233°
2026-04-23 00:27 51.06205 -2.94682 1360 ft 132 kts 238°
2026-04-23 00:27 51.05845 -2.96032 1404 ft 130 kts 239°
2026-04-23 00:27 51.05502 -2.97365 1422 ft 133 kts 240°
2026-04-23 00:28 51.05144 -2.98712 1449 ft 132 kts 238°
2026-04-23 00:28 51.04769 -3.00048 1466 ft 134 kts 240°
2026-04-23 00:28 51.04410 -3.01422 1455 ft 134 kts 239°
2026-04-23 00:28 51.04058 -3.02790 1465 ft 134 kts 240°
2026-04-23 00:29 51.03704 -3.04165 1466 ft 135 kts 240°
2026-04-23 00:29 51.03335 -3.05518 1464 ft 132 kts 237°
2026-04-23 00:29 51.02941 -3.06840 1461 ft 132 kts 237°
2026-04-23 00:29 51.02555 -3.08149 1463 ft 130 kts 236°
2026-04-23 00:30 51.02174 -3.09440 1461 ft 128 kts 237°
2026-04-23 00:30 51.01759 -3.10689 1465 ft 129 kts 232°
2026-04-23 00:30 51.01333 -3.11967 1466 ft 131 kts 234°
2026-04-23 00:30 51.00884 -3.13247 1471 ft 135 kts 233°
2026-04-23 00:31 51.00437 -3.14549 1465 ft 132 kts 233°
2026-04-23 00:31 51.00005 -3.15825 1467 ft 130 kts 233°
2026-04-23 00:31 50.99579 -3.17099 1465 ft 130 kts 234°
2026-04-23 00:31 50.99148 -3.18374 1464 ft 132 kts 232°
2026-04-23 00:32 50.98713 -3.19650 1467 ft 131 kts 233°
2026-04-23 00:32 50.98264 -3.20921 1466 ft 133 kts 233°
2026-04-23 00:32 50.97818 -3.22197 1470 ft 131 kts 232°
2026-04-23 00:32 50.97374 -3.23466 1466 ft 132 kts 232°
2026-04-23 00:33 50.96942 -3.24713 1468 ft 131 kts 233°
2026-04-23 00:33 50.96502 -3.25994 1466 ft 132 kts 233°
2026-04-23 00:33 50.96051 -3.27224 1465 ft 129 kts 231°
2026-04-23 00:33 50.95600 -3.28455 1467 ft 130 kts 231°
2026-04-23 00:34 50.95130 -3.29694 1464 ft 133 kts 231°
2026-04-23 00:34 50.94660 -3.30952 1454 ft 131 kts 232°
2026-04-23 00:34 50.94198 -3.32164 1452 ft 126 kts 230°
2026-04-23 00:34 50.93755 -3.33388 1468 ft 129 kts 231°
2026-04-23 00:35 50.93297 -3.34635 1466 ft 133 kts 231°
2026-04-23 00:35 50.92836 -3.35889 1465 ft 130 kts 231°
2026-04-23 00:35 50.92419 -3.37193 1459 ft 136 kts 239°
2026-04-23 00:35 50.92106 -3.38588 1455 ft 132 kts 245°
2026-04-23 00:36 50.91812 -3.39974 1458 ft 134 kts 245°
2026-04-23 00:36 50.91513 -3.41370 1462 ft 130 kts 243°
2026-04-23 00:36 50.91242 -3.42708 1453 ft 127 kts 245°
2026-04-23 00:36 50.90988 -3.44031 1452 ft 124 kts 245°
2026-04-23 00:37 50.90750 -3.45324 1450 ft 120 kts 246°
2026-04-23 00:37 50.90492 -3.46602 1449 ft 122 kts 245°
2026-04-23 00:37 50.90192 -3.47839 1442 ft 115 kts 222°
2026-04-23 00:37 50.89594 -3.48475 1443 ft 98 kts 200°
2026-04-23 00:38 50.89042 -3.49050 1453 ft 94 kts 201°
2026-04-23 00:38 50.88483 -3.49633 1467 ft 102 kts 200°
2026-04-23 00:38 50.87848 -3.50297 1456 ft 115 kts 204°
2026-04-23 00:38 50.87194 -3.51032 1466 ft 115 kts 204°
2026-04-23 00:39 50.86755 -3.51519 1465 ft 117 kts 205°
2026-04-23 00:39 50.86101 -3.52317 1465 ft 120 kts 207°
2026-04-23 00:39 50.85451 -3.53127 1457 ft 117 kts 209°
2026-04-23 00:39 50.84874 -3.53986 1439 ft 107 kts 213°
2026-04-23 00:40 50.84361 -3.54755 1448 ft 99 kts 211°
2026-04-23 00:40 50.83852 -3.55519 1440 ft 103 kts 212°
2026-04-23 00:40 50.83317 -3.56311 1457 ft 113 kts 212°
2026-04-23 00:40 50.82716 -3.57190 1458 ft 121 kts 212°
2026-04-23 00:41 50.82094 -3.58080 1450 ft 117 kts 212°
2026-04-23 00:41 50.81534 -3.58924 1441 ft 105 kts 212°
2026-04-23 00:41 50.80996 -3.59738 1450 ft 110 kts 212°
2026-04-23 00:41 50.80427 -3.60564 1449 ft 111 kts 211°
2026-04-23 00:42 50.79829 -3.61425 1451 ft 120 kts 212°
2026-04-23 00:42 50.79188 -3.62321 1443 ft 124 kts 214°
2026-04-23 00:42 50.78870 -3.63636 1441 ft 138 kts 262°
2026-04-23 00:42 50.78983 -3.65087 1454 ft 131 kts 279°
2026-04-23 00:43 50.79184 -3.66508 1455 ft 133 kts 280°
2026-04-23 00:43 50.79392 -3.67931 1445 ft 134 kts 284°
2026-04-23 00:43 50.79654 -3.69387 1448 ft 138 kts 283°
2026-04-23 00:43 50.79915 -3.70868 1458 ft 142 kts 284°
2026-04-23 00:44 50.80187 -3.72318 1448 ft 132 kts 284°
2026-04-23 00:44 50.80433 -3.73673 1446 ft 129 kts 283°
2026-04-23 00:44 50.80687 -3.75017 1445 ft 127 kts 284°
2026-04-23 00:44 50.80772 -3.76375 1442 ft 124 kts 244°
2026-04-23 00:45 50.80471 -3.77612 1438 ft 119 kts 242°
2026-04-23 00:45 50.80185 -3.78837 1445 ft 120 kts 240°
2026-04-23 00:45 50.79894 -3.80086 1427 ft 119 kts 242°
2026-04-23 00:45 50.79657 -3.81292 1423 ft 111 kts 247°
2026-04-23 00:46 50.79481 -3.82469 1446 ft 110 kts 250°
2026-04-23 00:46 50.79342 -3.83629 1424 ft 104 kts 250°
2026-04-23 00:46 50.79175 -3.84718 1387 ft 104 kts 245°
2026-04-23 00:46 50.78943 -3.85844 1287 ft 105 kts 243°
2026-04-23 00:47 50.78687 -3.86878 1338 ft 99 kts 238°
2026-04-23 00:47 50.78579 -3.87948 1369 ft 102 kts 280°
2026-04-23 00:47 50.78973 -3.88814 1396 ft 94 kts 334°
2026-04-23 00:47 50.79527 -3.89310 1389 ft 89 kts 344°
2026-04-23 00:48 50.80048 -3.89781 1242 ft 91 kts 315°
2026-04-23 00:48 50.80157 -3.90686 1084 ft 78 kts 250°
2026-04-23 00:48 50.79916 -3.91221 1016 ft 53 kts 180°
2026-04-23 00:48 50.79562 -3.91316 939 ft 51 kts 163°
2026-04-23 00:49 50.79214 -3.91239 904 ft 52 kts 154°
2026-04-23 00:49 50.78841 -3.91108 850 ft 55 kts 152°
2026-04-23 00:49 50.78476 -3.90947 731 ft 55 kts 153°
2026-04-23 00:49 50.78119 -3.90769 592 ft 51 kts 152°
2026-04-23 00:50 50.77799 -3.90605 486 ft 46 kts 148°
2026-04-23 00:50 50.77546 -3.90470 470 ft 27 kts 142°
2026-04-23 00:50 50.77338 -3.90343 556 ft 42 kts 151°
2026-04-23 00:50 50.77015 -3.90203 717 ft 55 kts 152°
2026-04-23 00:51 50.76597 -3.90056 855 ft 68 kts 147°
2026-04-23 00:51 50.76406 -3.89326 881 ft 86 kts 80°
2026-04-23 00:51 50.76693 -3.88494 1019 ft 85 kts 66°
2026-04-23 00:51 50.77110 -3.87780 1081 ft 104 kts 30°
2026-04-23 00:52 50.77857 -3.87911 1132 ft 111 kts 341°
2026-04-23 00:52 50.78521 -3.88429 1197 ft 105 kts 342°
2026-04-23 00:52 50.79207 -3.88861 1214 ft 108 kts 346°
2026-04-23 00:52 50.79885 -3.89401 1206 ft 111 kts 318°
2026-04-23 00:53 50.80189 -3.90472 1204 ft 109 kts 276°
2026-04-23 00:53 50.80115 -3.91640 1180 ft 105 kts 233°
2026-04-23 00:53 50.79600 -3.92359 1282 ft 96 kts 203°
2026-04-23 00:53 50.79045 -3.92911 1447 ft 93 kts 199°
2026-04-23 00:54 50.78465 -3.93442 1433 ft 99 kts 197°
2026-04-23 00:54 50.77882 -3.93955 1431 ft 93 kts 197°
2026-04-23 00:54 50.77330 -3.94448 1445 ft 94 kts 195°
2026-04-23 00:54 50.76722 -3.94943 1486 ft 99 kts 193°
2026-04-23 00:55 50.76126 -3.95408 1608 ft 92 kts 191°
2026-04-23 00:55 50.75580 -3.95908 1744 ft 94 kts 198°
2026-04-23 00:55 50.75104 -3.96695 1874 ft 100 kts 210°
2026-04-23 00:55 50.74627 -3.97550 1959 ft 107 kts 211°
2026-04-23 00:56 50.74143 -3.98514 1968 ft 117 kts 217°
2026-04-23 00:56 50.73646 -3.99531 1976 ft 115 kts 216°
2026-04-23 00:56 50.73162 -4.00516 1961 ft 111 kts 216°
2026-04-23 00:56 50.72697 -4.01446 1956 ft 104 kts 216°
2026-04-23 00:57 50.72420 -4.02515 1958 ft 106 kts 244°
2026-04-23 00:57 50.72218 -4.03648 1975 ft 115 kts 240°
2026-04-23 00:57 50.71976 -4.04921 1966 ft 127 kts 239°
2026-04-23 00:57 50.71699 -4.06286 1966 ft 132 kts 240°
2026-04-23 00:58 50.71433 -4.07689 1972 ft 134 kts 242°
2026-04-23 00:58 50.71170 -4.09065 1957 ft 126 kts 240°
2026-04-23 00:58 50.71086 -4.09505 1959 ft 123 kts 240°
2026-04-23 00:58 50.70949 -4.10239 1966 ft 122 kts 240°
2026-04-23 00:59 50.70709 -4.11543 1964 ft 125 kts 240°
2026-04-23 00:59 50.70462 -4.12871 1973 ft 127 kts 240°
2026-04-23 00:59 50.70204 -4.14238 1958 ft 131 kts 242°
2026-04-23 00:59 50.69963 -4.15625 1964 ft 131 kts 240°
2026-04-23 01:00 50.69719 -4.16989 1953 ft 127 kts 241°
2026-04-23 01:00 50.69467 -4.18324 1966 ft 130 kts 241°
2026-04-23 01:00 50.69205 -4.19663 1949 ft 122 kts 237°
2026-04-23 01:00 50.68921 -4.20895 1966 ft 122 kts 233°
2026-04-23 01:01 50.68591 -4.22161 1961 ft 126 kts 232°
2026-04-23 01:01 50.68278 -4.23420 1950 ft 121 kts 232°
2026-04-23 01:01 50.67967 -4.24624 1962 ft 116 kts 229°
2026-04-23 01:01 50.67614 -4.25826 1958 ft 126 kts 230°
2026-04-23 01:02 50.67239 -4.27055 1952 ft 120 kts 226°
2026-04-23 01:02 50.66837 -4.28217 1954 ft 122 kts 226°
2026-04-23 01:02 50.66409 -4.29369 1954 ft 120 kts 221°
2026-04-23 01:02 50.65950 -4.30476 1944 ft 121 kts 221°
2026-04-23 01:03 50.65500 -4.31592 1950 ft 122 kts 221°
2026-04-23 01:03 50.65046 -4.32706 1955 ft 119 kts 221°
2026-04-23 01:03 50.64619 -4.33790 1956 ft 114 kts 221°
2026-04-23 01:03 50.64191 -4.34872 1965 ft 122 kts 222°
2026-04-23 01:04 50.63728 -4.36003 1954 ft 121 kts 221°
2026-04-23 01:04 50.63284 -4.37089 1961 ft 119 kts 221°
2026-04-23 01:04 50.62411 -4.39429 1950 ft 123 kts 225°
2026-04-23 01:05 50.62005 -4.40588 1946 ft 119 kts 225°
2026-04-23 01:05 50.61610 -4.41712 1945 ft 117 kts 224°
2026-04-23 01:05 50.61202 -4.42868 1954 ft 124 kts 224°
2026-04-23 01:05 50.60779 -4.44058 1960 ft 125 kts 225°
2026-04-23 01:06 50.60368 -4.45214 1939 ft 115 kts 225°
2026-04-23 01:06 50.59995 -4.46312 1943 ft 114 kts 225°
2026-04-23 01:06 50.59617 -4.47412 1944 ft 116 kts 225°
2026-04-23 01:06 50.59197 -4.48538 1943 ft 118 kts 225°
2026-04-23 01:07 50.58799 -4.49629 1937 ft 113 kts 224°
2026-04-23 01:07 50.58435 -4.50700 1942 ft 109 kts 224°
2026-04-23 01:07 50.58085 -4.51773 1935 ft 110 kts 224°
2026-04-23 01:07 50.57728 -4.52853 1936 ft 113 kts 225°
2026-04-23 01:08 50.57397 -4.53926 1946 ft 106 kts 224°
2026-04-23 01:08 50.57064 -4.54990 1946 ft 109 kts 225°
2026-04-23 01:08 50.56710 -4.56001 1945 ft 103 kts 219°
2026-04-23 01:08 50.56322 -4.56951 1940 ft 97 kts 206°
2026-04-23 01:09 50.55814 -4.57575 1938 ft 94 kts 199°
2026-04-23 01:09 50.55298 -4.58222 1941 ft 97 kts 199°
2026-04-23 01:09 50.54750 -4.58870 1942 ft 103 kts 198°
2026-04-23 01:09 50.54166 -4.59552 1942 ft 103 kts 199°
2026-04-23 01:10 50.53604 -4.60221 1931 ft 97 kts 199°
2026-04-23 01:10 50.53102 -4.60854 1914 ft 89 kts 201°
2026-04-23 01:10 50.52648 -4.61526 1829 ft 90 kts 204°
2026-04-23 01:10 50.52203 -4.62226 1735 ft 90 kts 207°
2026-04-23 01:11 50.51796 -4.62983 1706 ft 92 kts 211°
2026-04-23 01:11 50.51388 -4.63763 1606 ft 93 kts 212°
2026-04-23 01:11 50.51074 -4.64678 1530 ft 99 kts 248°
2026-04-23 01:11 50.51115 -4.65777 1544 ft 107 kts 276°
2026-04-23 01:12 50.51449 -4.66834 1497 ft 110 kts 303°
2026-04-23 01:12 50.51918 -4.67791 1436 ft 110 kts 312°
2026-04-23 01:12 50.52415 -4.68662 1405 ft 104 kts 314°
2026-04-23 01:12 50.52717 -4.69533 1267 ft 88 kts 263°
2026-04-23 01:13 50.52524 -4.70327 1189 ft 71 kts 224°
2026-04-23 01:13 50.52219 -4.70795 1158 ft 54 kts 165°
2026-04-23 01:13 50.51943 -4.70551 1122 ft 45 kts 127°
2026-04-23 01:13 50.51693 -4.70254 1098 ft 46 kts 126°
2026-04-23 01:14 50.51506 -4.69878 1096 ft 42 kts 116°
2026-04-23 01:14 50.51341 -4.69507 1083 ft 43 kts 116°
2026-04-23 01:14 50.51179 -4.69115 997 ft 42 kts 115°
2026-04-23 01:14 50.51025 -4.68760 913 ft 37 kts 118°
2026-04-23 01:15 50.50879 -4.68423 930 ft 40 kts 116°
2026-04-23 01:15 50.50708 -4.68040 913 ft 47 kts 121°
2026-04-23 01:15 50.50502 -4.67636 823 ft 45 kts 121°
2026-04-23 01:15 50.50319 -4.67278 765 ft 41 kts 121°
2026-04-23 01:16 50.50147 -4.66938 680 ft 34 kts 121°
2026-04-23 01:16 50.50010 -4.66676 651 ft 28 kts 121°
2026-04-23 01:16 50.49921 -4.66515 647 ft 11 kts 117°
2026-04-23 01:16 50.49906 -4.66454 646 ft 5 kts 90°
2026-04-23 01:17 50.49924 -4.66398 642 ft 9 kts 121°
2026-04-23 01:17 50.49920 -4.66394 642 ft 0 kts 206°